Time;durP1;ratioP1;P1;durP2;ratioP2;P2;SDS_P1;SDS_P2;PMS_P1;PMS_P2;Temp;Humidity;BMP_temperature;BMP_pressure;BME280_temperature;BME280_humidity;BME280_pressure;Samples;Min_cycle;Max_cycle;Signal;HPM_P1;HPM_P2
2023/05/31 00:00:40;;;;;;;;;16.00;15.00;25.90;49.80;;;;;;111580;1244;54137;-74
2023/05/31 00:03:23;;;;;;;;;19.00;17.75;25.90;49.80;;;;;;111525;1243;44934;-75
2023/05/31 00:05:50;;;;;;;;;17.00;14.00;25.90;49.80;;;;;;111870;1243;48892;-74
2023/05/31 00:08:17;;;;;;;;;17.50;16.50;25.90;49.80;;;;;;111580;1239;49202;-75
2023/05/31 00:10:44;;;;;;;;;19.50;16.00;25.90;49.70;;;;;;111532;1238;53315;-75
2023/05/31 00:13:11;;;;;;;;;19.00;18.00;25.90;49.70;;;;;;111315;1244;44679;-76
2023/05/31 00:15:38;;;;;;;;;22.50;16.50;25.90;50.00;;;;;;111777;1244;49562;-76
2023/05/31 00:18:06;;;;;;;;;16.50;15.50;25.90;49.80;;;;;;111636;1241;50620;-75
2023/05/31 00:20:34;;;;;;;;;20.50;19.00;25.90;49.80;;;;;;111597;1238;53418;-75
2023/05/31 00:23:01;;;;;;;;;18.25;16.75;25.90;49.80;;;;;;111432;1241;44029;-75
2023/05/31 00:25:28;;;;;;;;;18.25;17.00;25.90;50.00;;;;;;112105;1238;49360;-75
2023/05/31 00:27:56;;;;;;;;;19.67;18.33;25.80;49.70;;;;;;111655;1238;49339;-75
2023/05/31 00:30:24;;;;;;;;;20.75;19.00;25.80;49.70;;;;;;111679;1238;54098;-74
2023/05/31 00:32:51;;;;;;;;;19.67;17.67;25.80;49.80;;;;;;111532;1243;44756;-74
2023/05/31 00:35:17;;;;;;;;;21.25;19.00;25.80;49.80;;;;;;111822;1239;49315;-74
2023/05/31 00:37:44;;;;;;;;;17.75;15.50;25.80;49.90;;;;;;111604;1238;49412;-73
2023/05/31 00:40:12;;;;;;;;;18.00;17.00;25.80;50.00;;;;;;111582;1243;53124;-72
2023/05/31 00:42:39;;;;;;;;;18.25;15.75;25.80;49.80;;;;;;111388;1242;44691;-74
2023/05/31 00:45:07;;;;;;;;;19.00;16.00;25.80;50.00;;;;;;111721;1241;50543;-74
2023/05/31 00:47:35;;;;;;;;;25.75;21.50;25.80;49.80;;;;;;111435;1243;49955;-74
2023/05/31 00:50:02;;;;;;;;;18.00;15.50;25.80;49.80;;;;;;111334;1241;54135;-74
2023/05/31 00:52:30;;;;;;;;;20.50;16.25;25.80;49.80;;;;;;111279;1246;44894;-73
2023/05/31 00:54:57;;;;;;;;;20.25;18.00;25.80;49.80;;;;;;111917;1241;49229;-73
2023/05/31 00:57:24;;;;;;;;;14.25;13.25;25.80;49.80;;;;;;111587;1238;48956;-73
2023/05/31 00:59:51;;;;;;;;;22.25;16.00;25.80;49.80;;;;;;111340;1238;53916;-74
2023/05/31 01:02:18;;;;;;;;;23.50;19.25;25.80;49.80;;;;;;111540;1238;45048;-74
2023/05/31 01:04:45;;;;;;;;;19.00;18.00;25.80;49.80;;;;;;111867;1241;49581;-73
2023/05/31 01:07:12;;;;;;;;;21.00;17.75;25.80;49.80;;;;;;111514;1238;49349;-73
2023/05/31 01:09:42;;;;;;;;;18.25;16.25;25.80;49.80;;;;;;111610;1241;53815;-73
2023/05/31 01:12:53;;;;;;;;;17.75;16.75;25.70;49.70;;;;;;111576;1237;45078;-73
2023/05/31 01:15:25;;;;;;;;;19.67;18.67;25.80;49.80;;;;;;111836;1241;49942;-75
2023/05/31 01:18:32;;;;;;;;;25.50;18.50;25.80;49.80;;;;;;111544;1238;49127;-74
2023/05/31 01:21:03;;;;;;;;;18.00;17.00;25.80;49.70;;;;;;110639;1237;1260356;-74
2023/05/31 01:24:00;;;;;;;;;23.00;18.25;25.80;49.60;;;;;;111582;1238;44856;-75
2023/05/31 01:26:32;;;;;;;;;23.33;18.33;25.80;49.60;;;;;;111924;1238;50485;-74
2023/05/31 01:29:08;;;;;;;;;17.25;16.25;25.80;49.60;;;;;;111498;1238;50375;-72
2023/05/31 01:31:36;;;;;;;;;21.00;17.00;25.80;49.50;;;;;;111519;1238;53110;-74
2023/05/31 01:34:04;;;;;;;;;20.00;18.00;25.80;49.60;;;;;;111587;1240;44965;-73
2023/05/31 01:36:32;;;;;;;;;18.50;17.50;25.80;49.60;;;;;;111650;1243;49300;-74
2023/05/31 01:39:03;;;;;;;;;18.75;15.75;25.80;49.60;;;;;;111533;1241;48794;-73
2023/05/31 01:41:37;;;;;;;;;20.50;19.50;25.80;49.70;;;;;;111560;1244;54354;-73
2023/05/31 01:44:06;;;;;;;;;19.00;16.50;25.70;49.50;;;;;;111695;1238;44181;-72
2023/05/31 01:46:37;;;;;;;;;17.75;16.00;25.70;49.60;;;;;;111971;1241;50654;-73
2023/05/31 01:49:05;;;;;;;;;17.67;16.33;25.70;49.60;;;;;;111739;1241;49701;-74
2023/05/31 01:51:33;;;;;;;;;17.25;16.00;25.70;49.60;;;;;;111615;1243;54090;-72
2023/05/31 01:54:00;;;;;;;;;21.00;19.75;25.70;49.60;;;;;;111589;1241;45456;-72
2023/05/31 01:56:28;;;;;;;;;21.50;17.75;25.70;49.70;;;;;;112065;1241;50409;-71
2023/05/31 01:58:56;;;;;;;;;17.50;16.50;25.70;49.70;;;;;;111648;1244;49523;-74
2023/05/31 02:01:23;;;;;;;;;20.50;19.50;25.70;49.80;;;;;;111643;1240;53612;-70
2023/05/31 02:03:51;;;;;;;;;16.25;15.25;25.60;49.70;;;;;;111311;1244;45601;-73
2023/05/31 02:06:18;;;;;;;;;14.50;13.50;25.60;49.70;;;;;;111671;1243;49193;-74
2023/05/31 02:08:45;;;;;;;;;17.50;16.25;25.60;49.70;;;;;;111372;1240;49124;-74
2023/05/31 02:11:12;;;;;;;;;15.25;14.25;25.60;49.80;;;;;;111544;1238;55679;-71
2023/05/31 02:13:39;;;;;;;;;16.75;15.75;25.60;49.60;;;;;;111470;1238;45256;-73
2023/05/31 02:16:06;;;;;;;;;21.00;19.00;25.60;49.70;;;;;;111820;1239;50057;-73
2023/05/31 02:18:35;;;;;;;;;22.00;18.00;25.60;49.70;;;;;;111316;1243;50567;-71
2023/05/31 02:21:02;;;;;;;;;20.50;15.50;25.60;49.70;;;;;;111575;1238;54013;-71
2023/05/31 02:23:29;;;;;;;;;19.50;16.75;25.60;49.70;;;;;;111573;1240;45071;-71
2023/05/31 02:25:56;;;;;;;;;17.67;16.33;25.60;49.70;;;;;;111989;1237;48960;-71
2023/05/31 02:28:23;;;;;;;;;19.50;16.75;25.60;49.70;;;;;;111556;1239;49900;-72
2023/05/31 02:30:54;;;;;;;;;20.25;16.50;25.60;49.70;;;;;;111430;1239;53912;-72
2023/05/31 02:33:21;;;;;;;;;19.50;15.75;25.50;49.60;;;;;;111380;1241;44761;-72
2023/05/31 02:35:49;;;;;;;;;16.75;15.75;25.60;50.00;;;;;;111905;1240;49476;-72
2023/05/31 02:38:17;;;;;;;;;19.25;18.25;25.60;50.00;;;;;;111539;1240;48940;-70
2023/05/31 02:40:43;;;;;;;;;17.25;16.25;25.60;49.70;;;;;;111491;1243;54283;-72
2023/05/31 02:43:10;;;;;;;;;18.50;14.75;25.60;49.90;;;;;;111630;1241;45294;-72
2023/05/31 02:45:37;;;;;;;;;18.75;14.00;25.60;49.70;;;;;;111837;1241;49163;-73
2023/05/31 02:48:05;;;;;;;;;23.00;18.25;25.50;49.70;;;;;;111201;1239;49873;-73
2023/05/31 02:50:32;;;;;;;;;18.50;16.50;25.50;49.60;;;;;;111290;1238;54173;-73
2023/05/31 02:53:04;;;;;;;;;17.75;16.00;25.50;49.60;;;;;;111480;1241;44441;-73
2023/05/31 02:55:32;;;;;;;;;16.33;15.33;25.50;49.70;;;;;;111527;1243;48739;-73
2023/05/31 02:57:59;;;;;;;;;16.25;15.25;25.50;49.80;;;;;;111444;1238;49690;-73
2023/05/31 03:00:26;;;;;;;;;18.50;17.50;25.50;49.70;;;;;;111370;1243;54758;-73
2023/05/31 03:02:53;;;;;;;;;19.33;17.00;25.50;49.70;;;;;;111420;1240;44782;-73
2023/05/31 03:05:20;;;;;;;;;18.00;15.25;25.50;49.80;;;;;;111010;1244;49014;-73
2023/05/31 03:07:47;;;;;;;;;15.25;14.00;25.50;49.80;;;;;;111575;1239;49469;-73
2023/05/31 03:10:15;;;;;;;;;15.00;14.00;25.40;50.40;;;;;;111543;1238;54809;-75
2023/05/31 03:12:42;;;;;;;;;20.25;19.25;25.40;51.60;;;;;;111528;1241;44619;-76
2023/05/31 03:15:09;;;;;;;;;21.33;20.33;25.40;52.20;;;;;;111770;1241;49583;-77
2023/05/31 03:17:37;;;;;;;;;23.25;22.50;25.30;52.80;;;;;;111653;1238;49743;-76
2023/05/31 03:20:08;;;;;;;;;20.75;18.75;25.30;52.80;;;;;;111529;1238;53475;-76
2023/05/31 03:22:36;;;;;;;;;19.00;14.75;25.30;52.40;;;;;;111466;1237;45111;-75
2023/05/31 03:25:04;;;;;;;;;21.50;19.50;25.20;52.80;;;;;;111646;1243;49423;-75
2023/05/31 03:27:31;;;;;;;;;25.50;21.00;25.20;52.90;;;;;;111410;1243;50059;-73
2023/05/31 03:29:59;;;;;;;;;19.00;17.67;25.30;53.10;;;;;;111460;1238;53328;-72
2023/05/31 03:32:26;;;;;;;;;21.25;20.00;25.30;53.00;;;;;;111578;1238;44234;-74
2023/05/31 03:34:53;;;;;;;;;23.00;20.00;25.40;52.90;;;;;;111763;1241;50310;-74
2023/05/31 03:37:20;;;;;;;;;19.25;18.25;25.40;52.60;;;;;;111365;1244;49012;-73
2023/05/31 03:39:47;;;;;;;;;24.00;21.75;25.40;52.60;;;;;;111527;1243;55185;-73
2023/05/31 03:42:14;;;;;;;;;22.00;19.00;25.50;52.90;;;;;;111545;1238;44663;-74
2023/05/31 03:44:41;;;;;;;;;21.50;18.25;25.50;52.40;;;;;;111942;1238;49187;-73
2023/05/31 03:47:08;;;;;;;;;21.25;18.25;25.50;52.10;;;;;;111673;1237;49487;-72
2023/05/31 03:49:35;;;;;;;;;20.00;17.00;25.50;52.00;;;;;;111518;1238;53967;-74
2023/05/31 03:52:02;;;;;;;;;21.00;20.00;25.50;51.80;;;;;;111521;1238;44898;-73
2023/05/31 03:54:30;;;;;;;;;22.33;18.33;25.50;51.80;;;;;;111657;1243;48944;-77
2023/05/31 03:56:57;;;;;;;;;20.75;18.75;25.50;51.70;;;;;;111449;1241;49829;-76
2023/05/31 03:59:24;;;;;;;;;24.50;22.00;25.60;51.20;;;;;;111558;1240;53987;-76
2023/05/31 04:01:51;;;;;;;;;21.50;19.25;25.50;51.50;;;;;;111584;1241;45898;-66
2023/05/31 04:04:18;;;;;;;;;20.75;16.50;25.60;51.50;;;;;;111515;1238;49039;-73
2023/05/31 04:06:45;;;;;;;;;19.00;18.00;25.50;51.90;;;;;;111630;1242;49749;-74
2023/05/31 04:09:12;;;;;;;;;22.00;21.00;25.50;51.30;;;;;;111416;1243;53873;-73
2023/05/31 04:11:39;;;;;;;;;24.00;21.25;25.60;51.30;;;;;;111286;1244;44869;-76
2023/05/31 04:14:06;;;;;;;;;22.75;20.25;25.50;51.20;;;;;;111347;1240;49241;-68
2023/05/31 04:16:33;;;;;;;;;23.50;20.00;25.50;51.40;;;;;;111324;1243;49025;-68
2023/05/31 04:19:00;;;;;;;;;17.00;16.00;25.50;51.00;;;;;;111228;1238;54732;-71
2023/05/31 04:21:27;;;;;;;;;17.50;16.50;25.50;51.20;;;;;;111376;1243;44704;-78
2023/05/31 04:23:55;;;;;;;;;21.00;20.00;25.50;51.20;;;;;;111338;1244;48693;-72
2023/05/31 04:26:22;;;;;;;;;21.00;18.00;25.50;50.70;;;;;;111627;1244;48842;-74
2023/05/31 04:28:53;;;;;;;;;24.50;18.75;25.50;51.10;;;;;;111264;1244;53700;-77
2023/05/31 04:31:31;;;;;;;;;16.50;15.50;25.50;51.20;;;;;;111276;1244;44033;-70
2023/05/31 04:33:59;;;;;;;;;22.50;19.75;25.50;51.10;;;;;;111292;1241;49644;-70
2023/05/31 04:36:26;;;;;;;;;21.75;19.75;25.50;51.00;;;;;;111656;1238;50137;-72
2023/05/31 04:38:54;;;;;;;;;22.00;21.00;25.50;51.00;;;;;;111349;1238;53710;-73
2023/05/31 04:41:25;;;;;;;;;23.25;22.25;25.50;50.90;;;;;;111359;1242;44926;-70
2023/05/31 04:43:53;;;;;;;;;19.00;17.25;25.50;50.90;;;;;;111336;1243;50390;-71
2023/05/31 04:46:22;;;;;;;;;22.75;20.00;25.50;50.90;;;;;;111587;1244;49572;-71
2023/05/31 04:48:49;;;;;;;;;20.25;18.00;25.50;50.90;;;;;;111453;1240;53268;-72
2023/05/31 04:51:17;;;;;;;;;19.50;18.25;25.50;51.30;;;;;;111360;1240;44676;-71
2023/05/31 04:53:45;;;;;;;;;19.75;18.75;25.50;51.00;;;;;;111310;1244;49784;-70
2023/05/31 04:56:13;;;;;;;;;21.33;20.33;25.40;50.90;;;;;;111644;1243;49783;-68
2023/05/31 04:58:40;;;;;;;;;20.25;17.50;25.50;51.00;;;;;;111381;1243;54268;-69
2023/05/31 05:01:07;;;;;;;;;24.00;21.33;25.50;50.90;;;;;;111384;1240;44629;-70
2023/05/31 05:03:34;;;;;;;;;25.50;19.50;25.50;50.90;;;;;;111330;1239;49281;-69
2023/05/31 05:06:15;;;;;;;;;26.00;20.75;25.50;50.90;;;;;;111670;1240;49877;-68
2023/05/31 05:08:43;;;;;;;;;17.25;16.25;25.50;51.00;;;;;;111205;1246;53546;-69
2023/05/31 05:11:10;;;;;;;;;19.00;18.00;25.50;50.90;;;;;;111437;1238;45158;-67
2023/05/31 05:13:38;;;;;;;;;20.00;18.00;25.40;50.80;;;;;;111399;1238;48989;-68
2023/05/31 05:16:05;;;;;;;;;22.25;17.50;25.40;50.90;;;;;;111671;1238;49282;-68
2023/05/31 05:18:32;;;;;;;;;21.25;18.75;25.40;50.40;;;;;;111350;1243;54761;-70
2023/05/31 05:20:59;;;;;;;;;21.75;19.00;25.50;50.80;;;;;;111366;1244;44640;-75
2023/05/31 05:23:26;;;;;;;;;22.50;19.00;25.40;51.20;;;;;;111358;1240;49116;-74
2023/05/31 05:25:53;;;;;;;;;21.00;20.00;25.40;50.90;;;;;;111711;1240;49810;-74
2023/05/31 05:28:22;;;;;;;;;23.25;22.25;25.40;50.70;;;;;;111356;1240;54035;-74
2023/05/31 05:30:50;;;;;;;;;23.25;19.00;25.40;50.70;;;;;;111354;1244;44708;-73
2023/05/31 05:33:17;;;;;;;;;22.50;21.50;25.50;50.90;;;;;;111395;1243;49948;-74
2023/05/31 05:35:44;;;;;;;;;20.50;17.25;25.50;50.70;;;;;;111667;1244;49613;-74
2023/05/31 05:38:14;;;;;;;;;23.75;18.50;25.40;50.70;;;;;;111390;1238;54707;-73
2023/05/31 05:40:41;;;;;;;;;17.25;15.75;25.50;50.70;;;;;;111522;1244;45425;-73
2023/05/31 05:43:08;;;;;;;;;19.75;18.75;25.40;50.60;;;;;;111371;1243;49400;-74
2023/05/31 05:45:35;;;;;;;;;19.00;18.00;25.40;50.60;;;;;;111640;1240;49398;-72
2023/05/31 05:48:02;;;;;;;;;19.00;16.75;25.40;50.60;;;;;;111366;1239;53450;-74
2023/05/31 05:50:29;;;;;;;;;21.75;17.25;25.50;50.70;;;;;;111352;1239;44384;-74
2023/05/31 05:52:56;;;;;;;;;24.50;20.50;25.50;50.60;;;;;;111342;1244;49547;-75
2023/05/31 05:55:22;;;;;;;;;20.75;19.00;25.40;51.20;;;;;;111672;1244;49937;-74
2023/05/31 05:57:51;;;;;;;;;18.25;17.25;25.40;50.60;;;;;;111268;1244;53402;-73
2023/05/31 06:00:18;;;;;;;;;23.00;19.75;25.40;50.60;;;;;;111323;1244;44502;-74
2023/05/31 06:02:46;;;;;;;;;25.50;19.00;25.40;50.30;;;;;;111256;1244;48841;-74
2023/05/31 06:05:13;;;;;;;;;20.33;19.33;25.40;50.80;;;;;;111576;1240;49818;-74
2023/05/31 06:07:44;;;;;;;;;18.00;17.33;25.40;50.60;;;;;;111249;1240;53944;-73
2023/05/31 06:10:11;;;;;;;;;18.00;15.50;25.40;50.60;;;;;;111415;1242;44497;-74
2023/05/31 06:12:38;;;;;;;;;20.75;18.25;25.40;50.50;;;;;;111513;1237;49172;-74
2023/05/31 06:15:06;;;;;;;;;22.33;19.00;25.50;50.70;;;;;;111911;1240;49558;-74
2023/05/31 06:17:32;;;;;;;;;22.50;19.50;25.40;50.60;;;;;;111609;1244;54141;-74
2023/05/31 06:20:00;;;;;;;;;20.00;17.75;25.50;50.60;;;;;;111580;1238;44880;-74
2023/05/31 06:22:27;;;;;;;;;19.00;18.00;25.40;50.50;;;;;;111568;1241;49576;-74
2023/05/31 06:24:57;;;;;;;;;24.75;20.25;25.40;51.00;;;;;;111895;1242;49479;-74
2023/05/31 06:27:25;;;;;;;;;18.75;17.50;25.40;50.60;;;;;;111561;1237;53468;-73
2023/05/31 06:29:58;;;;;;;;;21.00;19.25;25.40;50.50;;;;;;111490;1238;44024;-73
2023/05/31 06:32:25;;;;;;;;;21.00;18.00;25.50;50.80;;;;;;111664;1243;50520;-73
2023/05/31 06:34:52;;;;;;;;;16.25;15.25;25.40;50.50;;;;;;111954;1238;49053;-73
2023/05/31 06:37:21;;;;;;;;;17.00;16.00;25.40;50.50;;;;;;111560;1240;53547;-74
2023/05/31 06:39:49;;;;;;;;;21.00;17.33;25.40;50.50;;;;;;111365;1244;44527;-74
2023/05/31 06:42:16;;;;;;;;;21.00;17.50;25.40;50.50;;;;;;111544;1241;49015;-73
2023/05/31 06:44:43;;;;;;;;;19.75;18.50;25.40;50.50;;;;;;111899;1243;49571;-74
2023/05/31 06:47:10;;;;;;;;;16.75;15.75;25.40;50.50;;;;;;111571;1238;53270;-74
2023/05/31 06:49:37;;;;;;;;;19.00;18.00;25.40;50.50;;;;;;111497;1238;44326;-74
2023/05/31 06:52:04;;;;;;;;;18.25;17.00;25.40;50.50;;;;;;111508;1240;50429;-74
2023/05/31 06:54:35;;;;;;;;;17.75;16.75;25.40;50.50;;;;;;111792;1238;48988;-74
2023/05/31 06:57:03;;;;;;;;;24.75;19.75;25.40;50.60;;;;;;111436;1238;54322;-73
2023/05/31 06:59:30;;;;;;;;;25.67;18.33;25.50;50.60;;;;;;111616;1238;45181;-73
2023/05/31 07:01:58;;;;;;;;;23.25;19.25;25.50;50.50;;;;;;111576;1238;50032;-73
2023/05/31 07:04:25;;;;;;;;;18.00;17.00;25.50;50.50;;;;;;111713;1238;49824;-74
2023/05/31 07:06:52;;;;;;;;;22.50;18.50;25.50;50.50;;;;;;111613;1243;53437;-74
2023/05/31 07:09:19;;;;;;;;;19.33;18.33;25.50;50.50;;;;;;111550;1239;44333;-74
2023/05/31 07:11:46;;;;;;;;;20.67;19.67;25.50;50.40;;;;;;111404;1241;49218;-74
2023/05/31 07:14:14;;;;;;;;;16.75;15.75;25.50;50.40;;;;;;111667;1240;48973;-74
2023/05/31 07:16:41;;;;;;;;;20.25;16.00;25.50;50.50;;;;;;111734;1241;53522;-73
2023/05/31 07:19:08;;;;;;;;;21.67;18.33;25.50;50.60;;;;;;111652;1238;44427;-73
2023/05/31 07:21:36;;;;;;;;;19.75;17.75;25.50;50.40;;;;;;111586;1241;49701;-74
2023/05/31 07:24:03;;;;;;;;;19.75;17.75;25.50;50.40;;;;;;111581;1243;50013;-73
2023/05/31 07:26:30;;;;;;;;;20.25;18.50;25.50;50.40;;;;;;111776;1241;54818;-74
2023/05/31 07:28:56;;;;;;;;;19.75;17.00;25.50;50.40;;;;;;111499;1238;45590;-73
2023/05/31 07:31:23;;;;;;;;;18.00;17.25;25.50;50.30;;;;;;111685;1238;49022;-73
2023/05/31 07:33:50;;;;;;;;;22.50;17.75;25.60;50.40;;;;;;111565;1241;49651;-73
2023/05/31 07:36:18;;;;;;;;;24.50;21.25;25.60;50.90;;;;;;111859;1239;53814;-72
2023/05/31 07:38:45;;;;;;;;;22.00;18.67;25.60;50.40;;;;;;111528;1238;44178;-74
2023/05/31 07:41:12;;;;;;;;;18.33;15.67;25.60;50.30;;;;;;111501;1238;49388;-73
2023/05/31 07:43:41;;;;;;;;;19.25;18.00;25.60;50.50;;;;;;111578;1241;49304;-73
2023/05/31 07:46:07;;;;;;;;;20.67;18.67;25.60;50.50;;;;;;111889;1242;53312;-73
2023/05/31 07:48:34;;;;;;;;;19.00;18.00;25.70;50.30;;;;;;111522;1238;44948;-72
2023/05/31 07:51:01;;;;;;;;;18.75;16.50;25.70;50.30;;;;;;111496;1239;49319;-72
2023/05/31 07:53:31;;;;;;;;;22.00;17.25;25.70;50.20;;;;;;111424;1238;49349;-77
2023/05/31 07:55:58;;;;;;;;;17.25;16.25;25.80;50.30;;;;;;111893;1238;53841;-73
2023/05/31 07:58:25;;;;;;;;;19.25;18.00;25.80;50.30;;;;;;111516;1237;44343;-73
2023/05/31 08:00:53;;;;;;;;;15.50;14.25;25.80;50.20;;;;;;111529;1242;49832;-73
2023/05/31 08:03:20;;;;;;;;;17.00;16.25;25.80;50.20;;;;;;111585;1241;49577;-74
2023/05/31 08:05:48;;;;;;;;;19.50;15.75;25.90;50.20;;;;;;111909;1238;53804;-73
2023/05/31 08:08:16;;;;;;;;;17.75;14.75;25.90;50.30;;;;;;111659;1241;45154;-74
2023/05/31 08:10:43;;;;;;;;;19.50;17.25;25.90;50.10;;;;;;111360;1243;49786;-73
2023/05/31 08:13:10;;;;;;;;;20.75;18.75;26.00;50.20;;;;;;111549;1241;49602;-72
2023/05/31 08:15:37;;;;;;;;;20.25;18.75;26.00;50.20;;;;;;111870;1241;53823;-73
2023/05/31 08:18:04;;;;;;;;;16.75;14.00;26.00;50.20;;;;;;111633;1238;45341;-73
2023/05/31 08:20:31;;;;;;;;;20.50;18.25;26.00;50.10;;;;;;111571;1241;48830;-73
2023/05/31 08:22:58;;;;;;;;;16.67;15.67;26.10;50.10;;;;;;111500;1244;50161;-73
2023/05/31 08:25:25;;;;;;;;;20.25;18.75;26.10;50.10;;;;;;111916;1237;53784;-74
2023/05/31 08:27:52;;;;;;;;;17.67;16.00;26.10;50.10;;;;;;111576;1238;45413;-73
2023/05/31 08:30:19;;;;;;;;;18.00;16.33;26.20;50.10;;;;;;111589;1241;49265;-73
2023/05/31 08:32:46;;;;;;;;;18.00;17.00;26.20;50.00;;;;;;111448;1244;48940;-73
2023/05/31 08:35:13;;;;;;;;;17.75;16.50;26.20;50.00;;;;;;111852;1242;54346;-73
2023/05/31 08:37:40;;;;;;;;;19.25;15.50;26.30;50.10;;;;;;111640;1239;44871;-72
2023/05/31 08:40:07;;;;;;;;;16.25;13.75;26.30;50.00;;;;;;111518;1241;49985;-73
2023/05/31 08:42:37;;;;;;;;;16.50;14.75;26.40;50.00;;;;;;111475;1243;50273;-73
2023/05/31 08:45:04;;;;;;;;;18.50;17.50;26.40;50.00;;;;;;111821;1240;54268;-73
2023/05/31 08:47:44;;;;;;;;;17.25;16.00;26.40;50.00;;;;;;111588;1238;44847;-74
2023/05/31 08:50:11;;;;;;;;;18.00;14.75;26.40;49.90;;;;;;111660;1243;50027;-73
2023/05/31 08:52:39;;;;;;;;;18.75;16.00;26.50;49.80;;;;;;111500;1241;49307;-74
2023/05/31 08:55:07;;;;;;;;;18.25;15.50;26.50;49.80;;;;;;111798;1239;54031;-73
2023/05/31 08:57:36;;;;;;;;;14.67;13.67;26.60;49.90;;;;;;111498;1238;44992;-73
2023/05/31 09:00:10;;;;;;;;;16.75;15.75;26.60;49.80;;;;;;111299;1238;49690;-73
2023/05/31 09:02:38;;;;;;;;;15.75;15.00;26.60;49.80;;;;;;111312;1243;49492;-73
2023/05/31 09:05:10;;;;;;;;;16.75;15.50;26.70;49.70;;;;;;111778;1241;53463;-74
2023/05/31 09:07:38;;;;;;;;;19.67;17.00;26.70;49.70;;;;;;111497;1239;44681;-73
2023/05/31 09:10:08;;;;;;;;;16.00;14.00;26.80;49.70;;;;;;111576;1240;49596;-73
2023/05/31 09:12:36;;;;;;;;;22.50;20.50;26.80;49.60;;;;;;111602;1239;49233;-73
2023/05/31 09:15:05;;;;;;;;;16.00;15.00;26.90;49.70;;;;;;111896;1240;54362;-73
2023/05/31 09:17:32;;;;;;;;;14.00;13.00;26.90;49.70;;;;;;111306;1244;45294;-73
2023/05/31 09:20:00;;;;;;;;;19.00;15.00;26.90;49.60;;;;;;111500;1238;49495;-73
2023/05/31 09:22:27;;;;;;;;;18.33;17.33;27.00;49.60;;;;;;111635;1241;49838;-73
2023/05/31 09:24:58;;;;;;;;;16.67;14.67;27.00;49.50;;;;;;111901;1240;53344;-74
2023/05/31 09:27:26;;;;;;;;;18.75;16.75;27.00;49.30;;;;;;111556;1237;45268;-73
2023/05/31 09:29:54;;;;;;;;;12.00;11.00;27.00;49.50;;;;;;111522;1241;50370;-73
2023/05/31 09:32:21;;;;;;;;;17.67;14.67;27.10;49.50;;;;;;111619;1238;49381;-73
2023/05/31 09:34:48;;;;;;;;;18.00;14.00;27.10;49.40;;;;;;111841;1239;54139;-74
2023/05/31 09:37:23;;;;;;;;;15.50;14.00;27.10;49.40;;;;;;111677;1238;44395;-73
2023/05/31 09:39:57;;;;;;;;;15.50;14.00;27.20;49.60;;;;;;111479;1241;49769;-74
2023/05/31 09:42:25;;;;;;;;;15.25;14.50;27.20;49.40;;;;;;111520;1238;50257;-72
2023/05/31 09:44:52;;;;;;;;;13.50;12.00;27.20;49.30;;;;;;111930;1243;53567;-73
2023/05/31 09:47:25;;;;;;;;;12.00;11.00;27.30;49.40;;;;;;111569;1241;45232;-73
2023/05/31 09:49:55;;;;;;;;;21.00;18.75;27.30;49.30;;;;;;111477;1241;49434;-72
2023/05/31 09:52:26;;;;;;;;;17.00;16.00;27.40;49.30;;;;;;111554;1238;49675;-73
2023/05/31 09:54:56;;;;;;;;;16.00;14.00;27.30;49.20;;;;;;111800;1238;53353;-73
2023/05/31 09:57:43;;;;;;;;;15.00;13.00;27.40;49.20;;;;;;111393;1240;44848;-72
2023/05/31 10:00:15;;;;;;;;;15.25;14.25;27.40;49.30;;;;;;111523;1238;49095;-73
2023/05/31 10:02:44;;;;;;;;;16.25;15.00;27.50;49.10;;;;;;111604;1239;49807;-73
2023/05/31 10:05:12;;;;;;;;;16.00;15.00;27.50;49.00;;;;;;111651;1241;54123;-73
2023/05/31 10:07:44;;;;;;;;;17.25;16.25;27.50;49.00;;;;;;111642;1241;45124;-72
2023/05/31 10:10:13;;;;;;;;;22.50;15.00;27.50;48.90;;;;;;111494;1238;50035;-73
2023/05/31 10:12:51;;;;;;;;;17.00;15.00;27.60;48.90;;;;;;111283;1244;50071;-72
2023/05/31 10:15:21;;;;;;;;;14.25;13.25;27.60;48.80;;;;;;111669;1243;54087;-72
2023/05/31 10:18:02;;;;;;;;;14.75;13.75;27.60;49.00;;;;;;111367;1243;45495;-73
2023/05/31 10:20:38;;;;;;;;;14.67;13.67;27.60;48.70;;;;;;111337;1242;50114;-72
2023/05/31 10:23:09;;;;;;;;;16.50;15.50;27.70;49.20;;;;;;111313;1239;49766;-73
2023/05/31 10:25:56;;;;;;;;;17.00;16.25;27.70;48.70;;;;;;111553;1242;54841;-72
2023/05/31 10:28:28;;;;;;;;;15.75;14.50;27.70;48.70;;;;;;111341;1243;44865;-72
2023/05/31 10:30:56;;;;;;;;;15.75;14.75;27.70;48.60;;;;;;111344;1244;48829;-72
2023/05/31 10:33:30;;;;;;;;;19.33;17.00;27.80;48.60;;;;;;111393;1242;48880;-71
2023/05/31 10:35:58;;;;;;;;;17.00;15.00;27.80;48.60;;;;;;111790;1240;54070;-72
2023/05/31 10:38:30;;;;;;;;;15.75;14.50;27.80;49.10;;;;;;111337;1240;44401;-73
2023/05/31 10:41:13;;;;;;;;;16.33;14.67;27.80;48.60;;;;;;111396;1243;49163;-73
2023/05/31 10:44:11;;;;;;;;;17.75;16.75;27.80;48.40;;;;;;111289;1238;49535;-73
2023/05/31 10:46:40;;;;;;;;;15.00;14.00;27.90;48.40;;;;;;111489;1244;53833;-73
2023/05/31 10:49:10;;;;;;;;;17.33;15.00;27.90;48.30;;;;;;111298;1242;45605;-73
2023/05/31 10:51:42;;;;;;;;;18.50;16.00;27.90;48.10;;;;;;111321;1244;49276;-73
2023/05/31 10:54:17;;;;;;;;;17.25;16.25;27.90;48.10;;;;;;111509;1244;49644;-73
2023/05/31 10:56:53;;;;;;;;;17.00;16.00;27.90;48.10;;;;;;111484;1241;54608;-73
2023/05/31 10:59:20;;;;;;;;;17.00;16.00;27.90;48.10;;;;;;111337;1238;44846;-73
2023/05/31 11:01:47;;;;;;;;;17.00;16.00;27.90;48.10;;;;;;111436;1238;50302;-73
2023/05/31 11:04:22;;;;;;;;;18.75;15.00;27.90;48.00;;;;;;111480;1243;48952;-73
2023/05/31 11:07:11;;;;;;;;;15.25;14.25;27.90;48.00;;;;;;111443;1243;54218;-73
2023/05/31 11:09:39;;;;;;;;;18.67;15.00;27.90;48.00;;;;;;111493;1241;44191;-73
2023/05/31 11:12:06;;;;;;;;;21.33;18.33;28.00;48.20;;;;;;111555;1241;48981;-73
2023/05/31 11:14:33;;;;;;;;;14.75;13.50;27.90;47.90;;;;;;111955;1241;49561;-72
2023/05/31 11:17:02;;;;;;;;;18.00;17.00;27.90;47.90;;;;;;111537;1238;54276;-72
2023/05/31 11:19:34;;;;;;;;;17.75;16.75;28.00;47.90;;;;;;111602;1241;44841;-75
2023/05/31 11:22:12;;;;;;;;;14.25;13.25;28.00;48.10;;;;;;111484;1244;50250;-72
2023/05/31 11:24:50;;;;;;;;;16.75;14.50;27.90;47.80;;;;;;111718;1243;49533;-73
2023/05/31 11:27:35;;;;;;;;;19.67;17.00;28.00;48.10;;;;;;111628;1241;54536;-73
2023/05/31 11:30:06;;;;;;;;;18.33;16.00;28.00;47.80;;;;;;111565;1241;44619;-72
2023/05/31 11:32:33;;;;;;;;;18.25;17.25;28.00;47.80;;;;;;111534;1241;49226;-72
2023/05/31 11:35:06;;;;;;;;;16.00;14.00;28.00;47.80;;;;;;111850;1238;49615;-72
2023/05/31 11:37:35;;;;;;;;;20.67;15.00;28.00;47.80;;;;;;111544;1238;54704;-72
2023/05/31 11:40:08;;;;;;;;;16.00;15.00;28.00;47.80;;;;;;111502;1240;44946;-72
2023/05/31 11:42:38;;;;;;;;;15.50;14.50;28.00;47.80;;;;;;111505;1238;49339;-73
2023/05/31 11:45:06;;;;;;;;;15.00;14.00;28.00;47.80;;;;;;111829;1242;49727;-73
2023/05/31 11:47:37;;;;;;;;;16.00;15.00;27.90;47.80;;;;;;111473;1241;54266;-73
2023/05/31 11:50:04;;;;;;;;;15.75;14.75;28.00;48.40;;;;;;111623;1241;44638;-72
2023/05/31 11:52:31;;;;;;;;;15.00;14.00;28.00;47.80;;;;;;111549;1239;49738;-72
2023/05/31 11:55:05;;;;;;;;;14.75;13.50;27.90;47.80;;;;;;111823;1238;50039;-73
2023/05/31 11:57:41;;;;;;;;;17.67;15.00;27.90;47.80;;;;;;111605;1241;53380;-71
2023/05/31 12:00:11;;;;;;;;;16.00;15.00;27.90;47.80;;;;;;111647;1238;45644;-72
2023/05/31 12:02:39;;;;;;;;;18.25;17.25;27.90;47.80;;;;;;111543;1237;49030;-73
2023/05/31 12:05:15;;;;;;;;;17.00;15.75;27.90;47.80;;;;;;111876;1239;49016;-73
2023/05/31 12:07:43;;;;;;;;;14.67;13.67;27.90;48.00;;;;;;111339;1244;53708;-73
2023/05/31 12:10:11;;;;;;;;;15.00;14.00;27.90;47.80;;;;;;111568;1243;44578;-73
2023/05/31 12:12:41;;;;;;;;;15.25;14.00;27.90;47.70;;;;;;111484;1238;49042;-73
2023/05/31 12:15:11;;;;;;;;;14.00;11.75;27.90;47.80;;;;;;111836;1241;49039;-72
2023/05/31 12:17:39;;;;;;;;;18.75;14.75;27.90;48.00;;;;;;111599;1239;53823;-72
2023/05/31 12:20:07;;;;;;;;;18.00;15.00;27.90;47.80;;;;;;111607;1238;44446;-72
2023/05/31 12:22:35;;;;;;;;;16.67;15.00;27.90;47.80;;;;;;111529;1241;49824;-72
2023/05/31 12:25:02;;;;;;;;;14.25;13.25;27.90;47.80;;;;;;111848;1238;50371;-73
2023/05/31 12:27:29;;;;;;;;;16.00;13.75;27.90;47.90;;;;;;111599;1245;53488;-73